createdAt,value
2022-07-26T00:02:06.542Z,100683.25
2022-07-26T00:07:03.985Z,100726.19
2022-07-26T00:12:01.723Z,100710.75
2022-07-26T00:16:59.021Z,100745.44
2022-07-26T00:22:20.406Z,100686.59
2022-07-26T00:27:37.726Z,100768.25
2022-07-26T00:32:43.337Z,100741.44
2022-07-26T00:37:42.992Z,100702.75
2022-07-26T00:42:44.676Z,100762.97
2022-07-26T00:47:48.571Z,100753.53
2022-07-26T00:53:06.971Z,100723.53
2022-07-26T00:58:05.997Z,100685.41
2022-07-26T01:03:09.237Z,100675.72
2022-07-26T01:08:10.426Z,100642.25
2022-07-26T01:13:25.130Z,100720.84
2022-07-26T01:18:32.474Z,100708.84
2022-07-26T01:23:36.412Z,100613.16
2022-07-26T01:28:54.352Z,100663.63
2022-07-26T01:33:55.249Z,100711.16
2022-07-26T01:44:13.091Z,100731.13
2022-07-26T01:49:30.554Z,100693.91
2022-07-26T01:54:29.638Z,100634.66
2022-07-26T01:59:29.624Z,100729.13
2022-07-26T02:05:04.073Z,100731.53
2022-07-26T02:10:10.700Z,100728.81
2022-07-26T02:15:16.792Z,100675.19
2022-07-26T02:20:17.148Z,100725.09
2022-07-26T02:25:32.073Z,100662.63
2022-07-26T02:31:36.044Z,100618.47
2022-07-26T02:37:37.598Z,100727.94
2022-07-26T02:42:57.050Z,100636.94
2022-07-26T02:48:00.813Z,100637.34
2022-07-26T02:53:04.931Z,100744.59
2022-07-26T02:58:08.890Z,100690.47
2022-07-26T03:03:29.958Z,100610.22
2022-07-26T03:08:33.994Z,100735.81
2022-07-26T03:13:42.520Z,100738.75
2022-07-26T03:18:40.799Z,100726.75
2022-07-26T03:23:47.352Z,100685.47
2022-07-26T03:28:51.140Z,100705.75
2022-07-26T03:33:58.547Z,100620.72
2022-07-26T03:39:04.689Z,100742.94
2022-07-26T03:44:34.644Z,100637.59
2022-07-26T03:49:32.239Z,100733.78
2022-07-26T03:54:30.950Z,100651.78
2022-07-26T03:59:29.200Z,100673.78
2022-07-26T04:05:01.910Z,100704.44
2022-07-26T04:16:08.741Z,100646.19
2022-07-26T04:21:25.090Z,100709.34
2022-07-26T04:26:22.737Z,100679.47
2022-07-26T04:31:36.680Z,100741.56
2022-07-26T04:36:36.815Z,100683.66
2022-07-26T04:41:34.097Z,100699.56
2022-07-26T04:53:04.293Z,100685.19
2022-07-26T04:58:04.713Z,100673.97
2022-07-26T05:03:02.862Z,100704.28
2022-07-26T05:08:12.863Z,100662.72
2022-07-26T05:13:14.897Z,100620.38
2022-07-26T05:18:20.005Z,100699.03
2022-07-26T05:23:24.803Z,100694.22
2022-07-26T05:28:24.487Z,100719.72
2022-07-26T05:33:21.641Z,100680.34
2022-07-26T05:38:19.007Z,100698.88
2022-07-26T05:43:40.817Z,100658.63
2022-07-26T12:01:16.068Z,100405.47
2022-07-26T12:06:15.900Z,100399.72
2022-07-26T12:11:18.727Z,100435.47
2022-07-26T12:16:44.319Z,100358.69
2022-07-26T12:21:48.142Z,100429.00
2022-07-26T12:26:45.484Z,100393.53
2022-07-26T12:31:43.421Z,100397.63
2022-07-26T12:36:48.876Z,100354.13
2022-07-26T12:41:59.287Z,100384.50
2022-07-26T12:47:04.803Z,100317.72
2022-07-26T12:52:04.540Z,100348.63
2022-07-26T12:57:34.380Z,100362.41
2022-07-26T13:02:43.050Z,100332.22
2022-07-26T13:16:12.914Z,100374.06
2022-07-26T13:21:05.993Z,100325.16
2022-07-26T13:27:05.566Z,100376.81
2022-07-26T13:32:22.137Z,100360.34
2022-07-26T13:49:40.577Z,100319.66
2022-07-26T13:54:49.744Z,100353.44
2022-07-26T15:00:08.996Z,100327.34
2022-07-26T15:05:30.905Z,100249.84
2022-07-26T15:10:35.709Z,100264.38
2022-07-26T15:15:52.081Z,100299.25
2022-07-26T15:20:49.087Z,100300.34
2022-07-26T15:25:48.463Z,100258.31
2022-07-26T15:30:46.802Z,100283.03
2022-07-26T15:35:46.269Z,100283.84
2022-07-26T15:40:44.614Z,100229.97
2022-07-26T15:45:43.893Z,100294.00
2022-07-26T15:51:04.502Z,100294.56
2022-07-26T15:56:15.830Z,100275.53
2022-07-26T16:02:08.197Z,100229.59
2022-07-26T16:07:33.255Z,100297.19
2022-07-26T16:13:07.566Z,100213.78
2022-07-26T16:18:08.745Z,100242.66
2022-07-26T16:23:10.416Z,100278.63
2022-07-26T16:28:08.136Z,100290.22
2022-07-26T16:33:09.984Z,100252.47
2022-07-26T16:38:12.749Z,100301.63
2022-07-26T16:43:12.172Z,100310.38
2022-07-26T16:48:09.313Z,100253.69
2022-07-26T16:53:55.320Z,100313.22
2022-07-26T16:59:21.494Z,100287.81
2022-07-26T17:04:28.445Z,100269.88
2022-07-26T17:09:27.758Z,100311.34
2022-07-26T17:14:24.870Z,100316.38
2022-07-26T17:19:31.496Z,100315.75
2022-07-26T17:24:29.877Z,100265.81
2022-07-26T17:29:29.205Z,100318.03
2022-07-26T17:34:26.597Z,100275.75
2022-07-26T17:39:23.830Z,100324.56
2022-07-26T17:44:45.646Z,100233.91
2022-07-26T17:49:44.568Z,100312.47
2022-07-26T17:55:08.188Z,100301.44
2022-07-26T18:00:10.987Z,100268.34
2022-07-26T18:05:10.554Z,100262.19
2022-07-26T18:10:11.233Z,100320.09
2022-07-26T18:15:38.695Z,100308.31
2022-07-26T18:20:36.323Z,100302.09
2022-07-26T18:25:33.591Z,100300.22
2022-07-26T18:30:41.591Z,100348.78
2022-07-26T18:35:41.521Z,100284.56
2022-07-26T18:40:39.010Z,100320.22
2022-07-26T18:45:37.170Z,100317.78
2022-07-26T18:50:34.653Z,100296.69
2022-07-26T18:55:36.155Z,100342.50
2022-07-26T19:00:37.569Z,100286.41
2022-07-26T19:05:37.289Z,100284.25
2022-07-26T19:10:35.217Z,100328.78
2022-07-26T19:15:32.401Z,100360.03
2022-07-26T19:20:39.842Z,100280.19
2022-07-26T19:38:49.969Z,100238.66
2022-07-26T19:44:23.283Z,100256.28
2022-07-26T19:50:30.239Z,100258.75
2022-07-26T20:01:59.080Z,100238.41
2022-07-26T20:07:03.088Z,100352.38
2022-07-26T20:12:36.394Z,100261.72
2022-07-26T20:18:29.549Z,100257.88
2022-07-26T20:35:54.679Z,100284.91
2022-07-26T20:41:03.125Z,100312.81
2022-07-26T20:53:46.236Z,100321.25
2022-07-26T20:59:39.455Z,100265.16
2022-07-26T21:12:05.514Z,100374.75
2022-07-26T21:17:53.816Z,100281.75
2022-07-26T21:23:03.433Z,100327.97
2022-07-26T21:28:13.897Z,100352.50
2022-07-26T21:33:16.435Z,100313.25
2022-07-26T21:38:41.047Z,100250.78
2022-07-26T21:43:43.865Z,100280.06
2022-07-26T21:48:50.423Z,100335.56
2022-07-26T21:53:55.243Z,100352.97
2022-07-26T21:59:12.638Z,100278.19
2022-07-26T22:04:30.896Z,100249.75
2022-07-26T22:09:29.331Z,100344.72
2022-07-26T22:14:54.614Z,100293.16
2022-07-26T22:19:57.379Z,100298.41
2022-07-26T22:25:50.872Z,100283.91
2022-07-26T22:31:00.412Z,100271.31
2022-07-26T22:36:04.458Z,100349.88
2022-07-26T22:41:08.149Z,100325.34
2022-07-26T22:46:11.025Z,100338.63
2022-07-26T22:51:12.467Z,100325.59
2022-07-26T22:56:19.645Z,100318.13
2022-07-26T23:01:21.687Z,100280.97
2022-07-26T23:06:31.867Z,100255.47
2022-07-26T23:11:36.037Z,100353.81
2022-07-26T23:16:39.022Z,100249.31
2022-07-26T23:21:37.129Z,100309.81
2022-07-26T23:27:12.637Z,100371.63
2022-07-26T23:32:44.657Z,100343.13
2022-07-26T23:37:48.995Z,100369.34
2022-07-26T23:42:53.941Z,100372.53
2022-07-26T23:47:57.766Z,100354.69
2022-07-26T23:52:55.599Z,100348.47
2022-07-26T23:57:53.620Z,100291.69
